Time;durP1;ratioP1;P1;durP2;ratioP2;P2;SDS_P1;SDS_P2;PMS_P1;PMS_P2;Temp;Humidity;BMP_temperature;BMP_pressure;BME280_temperature;BME280_humidity;BME280_pressure;Samples;Min_cycle;Max_cycle;Signal;HPM_P1;HPM_P2
2022/08/20 00:00:30;;;;;;;11.00;10.50;;;;;;;23.23;100.00;100401.25;5052017;28;20032;-69
2022/08/20 00:03:00;;;;;;;10.63;10.13;;;;;;;23.33;100.00;100393.19;5051885;28;20029;-69
2022/08/20 00:05:35;;;;;;;10.73;10.23;;;;;;;23.20;100.00;100391.75;5051793;28;20067;-69
2022/08/20 00:08:02;;;;;;;10.75;10.25;;;;;;;23.31;100.00;100392.63;5052134;28;20132;-70
2022/08/20 00:10:31;;;;;;;10.75;10.25;;;;;;;23.18;100.00;100385.78;5050859;28;20452;-69
2022/08/20 00:12:57;;;;;;;10.98;10.48;;;;;;;23.04;100.00;100390.84;5051843;28;20083;-70
2022/08/20 00:15:27;;;;;;;10.82;10.32;;;;;;;22.87;100.00;100391.00;5051739;28;20384;-70
2022/08/20 00:17:54;;;;;;;10.90;10.40;;;;;;;22.84;100.00;100388.78;5051598;28;20033;-69
2022/08/20 00:20:22;;;;;;;10.77;10.27;;;;;;;22.80;100.00;100384.16;5051878;28;20029;-68
2022/08/20 00:22:48;;;;;;;10.50;10.00;;;;;;;22.76;100.00;100400.06;5051561;28;20036;-69
2022/08/20 00:25:18;;;;;;;10.93;10.43;;;;;;;22.80;100.00;100392.25;5051462;28;20083;-70
2022/08/20 00:27:44;;;;;;;11.18;10.68;;;;;;;22.78;100.00;100389.81;5051695;28;20389;-70
2022/08/20 00:30:11;;;;;;;11.10;10.60;;;;;;;22.71;100.00;100394.63;5050452;28;20017;-68
2022/08/20 00:32:49;;;;;;;11.45;10.95;;;;;;;22.87;100.00;100392.88;5051603;28;20037;-70
2022/08/20 00:35:17;;;;;;;11.40;10.90;;;;;;;22.86;100.00;100392.06;5051383;28;20029;-68
2022/08/20 00:37:43;;;;;;;11.55;11.05;;;;;;;23.07;100.00;100389.50;5051275;28;20083;-70
2022/08/20 00:40:11;;;;;;;11.02;10.52;;;;;;;23.12;100.00;100382.22;5051404;28;20029;-70
2022/08/20 00:42:45;;;;;;;11.00;10.50;;;;;;;23.06;100.00;100385.16;5051584;28;20575;-68
2022/08/20 00:45:12;;;;;;;10.93;10.43;;;;;;;23.10;100.00;100372.75;5051578;28;20053;-68
2022/08/20 00:47:42;;;;;;;10.90;10.40;;;;;;;23.07;100.00;100367.88;5051486;28;20083;-69
2022/08/20 00:50:11;;;;;;;10.85;10.35;;;;;;;23.14;100.00;100368.47;5050047;28;20029;-69
2022/08/20 00:52:41;;;;;;;11.10;10.60;;;;;;;23.04;100.00;100363.78;5051555;28;20045;-68
2022/08/20 00:55:09;;;;;;;10.80;10.30;;;;;;;23.07;100.00;100362.47;5051050;28;20048;-70
2022/08/20 00:57:45;;;;;;;11.00;10.50;;;;;;;23.06;100.00;100367.06;5051361;28;20544;-70
2022/08/20 01:00:24;;;;;;;10.80;10.30;;;;;;;22.82;100.00;100373.88;5038652;28;20154;-70
2022/08/20 01:02:50;;;;;;;11.00;10.50;;;;;;;22.94;100.00;100362.91;5049073;28;20131;-70
2022/08/20 01:05:17;;;;;;;11.10;10.60;;;;;;;22.54;100.00;100362.28;5051227;28;20028;-70
2022/08/20 01:07:44;;;;;;;10.70;10.20;;;;;;;22.79;100.00;100364.41;5051238;28;20027;-70
2022/08/20 01:10:18;;;;;;;10.90;10.40;;;;;;;22.92;100.00;100360.47;5066666;28;20032;-69
2022/08/20 01:12:45;;;;;;;10.90;10.40;;;;;;;;;;5050859;28;20138;-70
2022/08/20 01:15:15;;;;;;;10.70;10.20;;;;;;;22.68;100.00;100359.16;5051319;28;20025;-70
2022/08/20 01:17:45;;;;;;;10.50;10.00;;;;;;;22.62;100.00;100355.59;5050981;28;20079;-70
2022/08/20 01:20:17;;;;;;;10.70;10.20;;;;;;;22.63;100.00;100351.84;5051132;28;20025;-69
2022/08/20 01:25:59;;;;;;;10.82;10.32;;;;;;;22.75;100.00;100363.28;5041205;28;20036;-70
2022/08/20 01:28:30;;;;;;;10.63;10.13;;;;;;;22.52;100.00;100352.81;5052525;28;20025;-70
2022/08/20 01:30:56;;;;;;;10.70;10.20;;;;;;;22.53;100.00;100360.66;5052850;28;20037;-69
2022/08/20 01:33:23;;;;;;;11.20;10.70;;;;;;;22.51;100.00;100353.91;5054837;28;20116;-70
2022/08/20 01:35:49;;;;;;;10.73;10.23;;;;;;;22.64;100.00;100352.66;5054947;28;20021;-68
2022/08/20 01:38:15;;;;;;;10.80;10.30;;;;;;;22.58;100.00;100344.50;5053535;28;20365;-71
2022/08/20 01:40:49;;;;;;;11.30;10.80;;;;;;;22.50;100.00;100346.88;5070112;28;20027;-70
2022/08/20 01:43:15;;;;;;;11.00;10.50;;;;;;;22.48;100.00;100341.72;5054796;28;20071;-70
2022/08/20 01:45:41;;;;;;;11.45;10.95;;;;;;;22.57;100.00;100348.28;5054344;28;20051;-70
2022/08/20 01:48:07;;;;;;;11.15;10.65;;;;;;;22.60;100.00;100347.75;5054626;28;20033;-69
2022/08/20 01:50:35;;;;;;;11.35;10.85;;;;;;;22.41;100.00;100351.13;5054196;28;20074;-68
2022/08/20 01:53:42;;;;;;;10.90;10.40;;;;;;;22.28;100.00;100357.75;5054300;28;20028;-69
2022/08/20 01:56:13;;;;;;;10.98;10.48;;;;;;;22.25;100.00;100361.75;4992831;28;20045;-69
2022/08/20 01:58:42;;;;;;;10.85;10.35;;;;;;;22.43;100.00;100355.19;4992667;28;20136;-69
2022/08/20 02:01:39;;;;;;;11.02;10.52;;;;;;;22.26;100.00;100352.59;5025906;28;20098;-68
2022/08/20 02:04:07;;;;;;;11.27;10.77;;;;;;;22.38;100.00;100344.31;5053793;28;20017;-69
2022/08/20 02:06:36;;;;;;;11.10;10.60;;;;;;;22.40;100.00;100328.69;5053253;28;20100;-68
2022/08/20 02:09:04;;;;;;;11.20;10.70;;;;;;;22.42;100.00;100350.03;5054282;28;20032;-69
2022/08/20 02:11:32;;;;;;;11.02;10.52;;;;;;;22.35;100.00;100350.25;5054311;28;20025;-70
2022/08/20 02:13:57;;;;;;;11.05;10.55;;;;;;;22.13;100.00;100354.91;5052809;28;20037;-70
2022/08/20 02:16:28;;;;;;;11.23;10.73;;;;;;;21.93;100.00;100353.56;5054016;28;20509;-70
2022/08/20 02:18:58;;;;;;;10.80;10.30;;;;;;;21.89;100.00;100346.25;5049865;28;20035;-69
2022/08/20 02:21:28;;;;;;;11.20;10.70;;;;;;;21.83;100.00;100353.47;5053753;28;20079;-70
2022/08/20 02:23:54;;;;;;;11.27;10.77;;;;;;;21.71;100.00;100356.31;5053824;28;20129;-70
2022/08/20 02:26:21;;;;;;;10.93;10.43;;;;;;;21.88;100.00;100364.31;5053832;28;20029;-70
2022/08/20 02:28:49;;;;;;;11.20;10.70;;;;;;;22.09;100.00;100368.09;5069199;28;20025;-69
2022/08/20 02:31:21;;;;;;;11.00;10.50;;;;;;;22.25;100.00;100356.34;5052300;28;20488;-69
2022/08/20 02:33:48;;;;;;;11.20;10.70;;;;;;;22.03;100.00;100360.97;5053689;28;20037;-70
2022/08/20 02:36:16;;;;;;;10.88;10.38;;;;;;;22.04;100.00;100359.94;5058355;28;20028;-68
2022/08/20 02:38:43;;;;;;;11.30;10.80;;;;;;;22.08;100.00;100355.66;5052980;28;20108;-69
2022/08/20 02:41:09;;;;;;;10.90;10.40;;;;;;;22.09;100.00;100359.16;5053777;28;20075;-69
2022/08/20 02:43:36;;;;;;;11.05;10.55;;;;;;;22.03;100.00;100353.72;5053575;28;20021;-68
2022/08/20 02:46:02;;;;;;;11.20;10.70;;;;;;;22.04;100.00;100352.63;5053388;28;20766;-68
2022/08/20 02:48:28;;;;;;;10.90;10.40;;;;;;;22.24;100.00;100354.72;5053141;28;20223;-69
2022/08/20 02:51:01;;;;;;;11.23;10.73;;;;;;;22.15;100.00;100360.84;5053505;28;20057;-70
2022/08/20 02:53:29;;;;;;;10.80;10.30;;;;;;;22.19;100.00;100362.00;5061891;28;20223;-68
2022/08/20 02:55:55;;;;;;;11.35;10.85;;;;;;;22.12;100.00;100367.59;5045097;28;20099;-69
2022/08/20 02:58:22;;;;;;;11.00;10.50;;;;;;;22.16;100.00;100367.88;5053287;28;20024;-69
2022/08/20 03:00:48;;;;;;;10.80;10.30;;;;;;;22.14;100.00;100367.34;5052781;28;20032;-69
2022/08/20 03:03:14;;;;;;;10.77;10.27;;;;;;;22.16;100.00;100379.50;5053273;28;20435;-68
2022/08/20 03:05:41;;;;;;;11.10;10.60;;;;;;;22.22;100.00;100386.59;5053146;28;20063;-70
2022/08/20 03:08:09;;;;;;;10.88;10.38;;;;;;;22.21;100.00;100382.28;5053068;28;20546;-70
2022/08/20 03:10:37;;;;;;;11.07;10.57;;;;;;;22.07;100.00;100375.59;5052713;28;20586;-70
2022/08/20 03:13:03;;;;;;;10.80;10.30;;;;;;;21.83;100.00;100380.47;5053264;28;20036;-70
2022/08/20 03:15:31;;;;;;;11.50;11.00;;;;;;;21.66;100.00;100379.72;5052961;28;20024;-70
2022/08/20 03:17:57;;;;;;;11.10;10.60;;;;;;;21.77;100.00;100368.00;5052723;28;20029;-70
2022/08/20 03:20:24;;;;;;;11.10;10.60;;;;;;;21.53;100.00;100375.53;5052491;28;20082;-69
2022/08/20 03:22:50;;;;;;;11.00;10.50;;;;;;;21.50;100.00;100370.63;5052885;28;20024;-70
2022/08/20 03:25:16;;;;;;;10.93;10.43;;;;;;;21.91;100.00;100371.13;5052454;28;20158;-69
2022/08/20 03:27:42;;;;;;;11.48;10.98;;;;;;;22.30;100.00;100361.00;5060155;28;20493;-70
2022/08/20 03:30:13;;;;;;;10.60;10.10;;;;;;;22.45;100.00;100363.84;5052618;28;20040;-69
2022/08/20 03:32:39;;;;;;;11.05;10.55;;;;;;;22.57;100.00;100363.69;5067882;28;20047;-69
2022/08/20 03:35:07;;;;;;;10.85;10.35;;;;;;;22.56;100.00;100372.88;5052586;28;20074;-70
2022/08/20 03:37:34;;;;;;;10.95;10.45;;;;;;;22.80;100.00;100370.63;5052631;28;20435;-70
2022/08/20 03:40:01;;;;;;;10.95;10.45;;;;;;;22.75;100.00;100373.28;5052418;28;20108;-69
2022/08/20 03:42:26;;;;;;;10.80;10.30;;;;;;;22.83;100.00;100367.38;5052333;28;20021;-70
2022/08/20 03:44:52;;;;;;;10.90;10.40;;;;;;;22.52;100.00;100379.84;5051799;28;20041;-69
2022/08/20 03:47:18;;;;;;;11.20;10.70;;;;;;;22.89;100.00;100391.53;5052585;28;20104;-69
2022/08/20 03:49:44;;;;;;;10.95;10.45;;;;;;;23.15;100.00;100381.72;5051302;28;20469;-70
2022/08/20 03:52:09;;;;;;;11.10;10.60;;;;;;;23.48;100.00;100368.88;5050875;28;20116;-71
2022/08/20 03:54:35;;;;;;;10.60;10.10;;;;;;;23.92;100.00;100372.06;5052271;28;20488;-70
2022/08/20 03:57:01;;;;;;;10.80;10.30;;;;;;;24.73;100.00;100378.69;5052027;28;20055;-69
2022/08/20 03:59:28;;;;;;;11.25;10.75;;;;;;;24.83;100.00;100367.84;5054360;28;20028;-69
2022/08/20 04:01:53;;;;;;;10.80;10.30;;;;;;;25.61;100.00;100365.47;5051311;28;20117;-69
2022/08/20 04:04:20;;;;;;;11.07;10.57;;;;;;;26.27;100.00;100368.94;5052214;28;20102;-69
2022/08/20 04:06:46;;;;;;;11.10;10.60;;;;;;;26.76;100.00;100368.06;5067085;28;20037;-68
2022/08/20 04:09:13;;;;;;;10.38;9.88;;;;;;;27.85;100.00;100370.16;5050445;28;20025;-69
2022/08/20 04:11:39;;;;;;;10.68;10.18;;;;;;;28.58;100.00;100373.16;5051908;28;20021;-69
2022/08/20 04:14:05;;;;;;;10.80;10.30;;;;;;;29.34;100.00;100373.72;5051787;28;20053;-69
2022/08/20 04:16:31;;;;;;;10.57;10.07;;;;;;;29.70;100.00;100384.75;5051793;28;20480;-69
2022/08/20 04:18:58;;;;;;;10.50;10.00;;;;;;;30.35;100.00;100391.03;5051237;28;20032;-69
2022/08/20 04:21:23;;;;;;;10.68;10.18;;;;;;;31.30;100.00;100395.19;5051909;28;20439;-69
2022/08/20 04:23:49;;;;;;;10.52;10.02;;;;;;;32.16;100.00;100400.06;5051064;28;20033;-69
2022/08/20 04:26:15;;;;;;;10.40;9.95;;;;;;;32.58;100.00;100392.16;5051731;28;20024;-68
2022/08/20 04:28:40;;;;;;;10.82;10.32;;;;;;;33.11;100.00;100396.41;5051309;28;20112;-70
2022/08/20 04:31:06;;;;;;;10.82;10.32;;;;;;;33.26;100.00;100400.56;5050524;28;20828;-69
2022/08/20 04:33:32;;;;;;;10.60;10.10;;;;;;;33.86;99.29;100413.22;5051672;28;20107;-68
2022/08/20 04:36:01;;;;;;;10.25;9.85;;;;;;;34.48;94.87;100397.88;5061133;28;20387;-69
2022/08/20 04:38:27;;;;;;;10.55;10.05;;;;;;;34.86;92.38;100409.47;5066672;28;20029;-69
2022/08/20 04:40:53;;;;;;;10.52;10.02;;;;;;;35.69;88.88;100404.75;5051697;28;20602;-69
2022/08/20 04:43:26;;;;;;;10.60;10.10;;;;;;;36.18;85.27;100418.50;5051305;28;20100;-70
2022/08/20 04:45:53;;;;;;;10.57;10.07;;;;;;;35.58;87.38;100414.66;5051333;28;20098;-69
2022/08/20 04:48:22;;;;;;;10.57;10.07;;;;;;;35.07;88.71;100416.91;5051347;28;20384;-69
2022/08/20 04:50:48;;;;;;;10.80;10.30;;;;;;;35.62;88.34;100418.31;5052177;28;20031;-70
2022/08/20 04:53:18;;;;;;;10.35;9.93;;;;;;;35.26;88.45;100408.91;5058355;28;20033;-70
2022/08/20 04:55:44;;;;;;;10.30;9.90;;;;;;;36.05;85.73;100420.47;5051373;28;20025;-69
2022/08/20 04:58:17;;;;;;;10.80;10.30;;;;;;;36.55;83.18;100415.63;5051342;28;20028;-70
2022/08/20 05:01:12;;;;;;;10.70;10.20;;;;;;;37.66;76.99;100422.06;5051590;28;20029;-69
2022/08/20 05:03:39;;;;;;;10.60;10.10;;;;;;;38.48;74.37;100421.09;5054833;28;20043;-68
2022/08/20 05:06:07;;;;;;;10.60;10.10;;;;;;;37.52;76.42;100428.06;5055196;28;20074;-68
2022/08/20 05:08:34;;;;;;;10.80;10.30;;;;;;;37.65;76.86;100420.44;5062465;28;20020;-69
2022/08/20 05:11:01;;;;;;;10.60;10.10;;;;;;;39.14;68.64;100422.75;5061228;28;20062;-69
2022/08/20 05:13:27;;;;;;;10.88;10.38;;;;;;;39.45;66.44;100419.72;5053757;28;20578;-68
2022/08/20 05:15:53;;;;;;;10.75;10.25;;;;;;;37.69;74.68;100411.09;5054974;28;20035;-69
2022/08/20 05:18:22;;;;;;;10.90;10.40;;;;;;;38.82;69.68;100413.84;5053310;28;20063;-69
2022/08/20 05:20:48;;;;;;;10.80;10.30;;;;;;;38.40;69.60;100412.63;5066918;28;20484;-69
2022/08/20 05:23:15;;;;;;;10.68;10.18;;;;;;;39.16;67.53;100417.66;5045691;28;20029;-69
2022/08/20 05:25:43;;;;;;;10.88;10.38;;;;;;;40.07;63.49;100427.78;5062137;28;20154;-69
2022/08/20 05:28:12;;;;;;;10.63;10.13;;;;;;;40.24;61.53;100429.97;5059372;28;20056;-69
2022/08/20 05:30:44;;;;;;;10.65;10.15;;;;;;;39.09;63.97;100423.84;5055006;28;20021;-69
2022/08/20 05:33:12;;;;;;;10.50;10.00;;;;;;;39.23;64.62;100423.34;5054807;28;20090;-68
2022/08/20 05:35:39;;;;;;;10.20;9.80;;;;;;;39.01;65.63;100427.69;5054656;28;20132;-69
2022/08/20 05:38:07;;;;;;;10.40;9.95;;;;;;;39.71;63.03;100424.50;5054579;28;20029;-68
2022/08/20 05:40:34;;;;;;;10.27;9.88;;;;;;;39.39;61.74;100426.75;5054768;28;20029;-68
2022/08/20 05:43:03;;;;;;;10.32;9.90;;;;;;;40.22;59.11;100437.91;5054970;28;20115;-69
2022/08/20 05:45:28;;;;;;;10.20;9.80;;;;;;;40.22;57.80;100429.56;5054725;28;20583;-68
2022/08/20 05:47:54;;;;;;;10.32;9.90;;;;;;;39.94;58.51;100421.63;5054287;28;20107;-69
2022/08/20 05:50:19;;;;;;;10.45;9.98;;;;;;;40.83;54.76;100427.47;5053741;28;20029;-68
2022/08/20 05:52:45;;;;;;;10.60;10.10;;;;;;;41.18;53.56;100427.03;5054507;28;20083;-68
2022/08/20 05:55:12;;;;;;;10.60;10.10;;;;;;;39.60;58.05;100419.97;5054354;28;20069;-68
2022/08/20 05:57:39;;;;;;;10.80;10.30;;;;;;;39.71;59.52;100415.34;5054402;28;20442;-68
2022/08/20 06:00:08;;;;;;;10.80;10.30;;;;;;;40.05;56.08;100416.25;5054174;28;20389;-69
2022/08/20 06:05:18;;;;;;;10.27;9.88;;;;;;;41.06;52.92;100416.19;5053341;28;20032;-69
2022/08/20 06:07:44;;;;;;;10.52;10.02;;;;;;;41.04;52.57;100415.78;5054004;28;20012;-69
2022/08/20 06:10:11;;;;;;;10.50;10.00;;;;;;;41.38;52.50;100406.16;5054093;28;20029;-69
2022/08/20 06:12:36;;;;;;;10.20;9.80;;;;;;;41.78;51.70;100409.22;5052648;28;20045;-69
2022/08/20 06:15:04;;;;;;;10.45;9.98;;;;;;;39.29;61.88;100410.72;5054428;28;20139;-68
2022/08/20 06:17:32;;;;;;;11.05;10.55;;;;;;;39.60;58.10;100412.44;5052976;28;20021;-69
2022/08/20 06:20:02;;;;;;;10.63;10.13;;;;;;;41.38;51.66;100416.50;5050676;28;20215;-70
2022/08/20 06:22:28;;;;;;;10.55;10.05;;;;;;;40.98;51.57;100422.88;5053476;28;20032;-68
2022/08/20 06:24:55;;;;;;;10.35;9.93;;;;;;;42.28;48.32;100413.06;5053646;28;20079;-69
2022/08/20 06:27:22;;;;;;;10.63;10.13;;;;;;;42.16;48.40;100413.41;5048601;28;20129;-69
2022/08/20 06:29:49;;;;;;;10.30;9.85;;;;;;;42.09;48.24;100399.41;5060744;28;20028;-69
2022/08/20 06:32:15;;;;;;;10.60;10.10;;;;;;;42.04;47.81;100402.59;5057123;28;20029;-69
2022/08/20 06:34:41;;;;;;;10.30;9.90;;;;;;;42.72;45.83;100407.22;5046196;28;20048;-70
2022/08/20 06:37:18;;;;;;;10.35;9.93;;;;;;;42.94;45.60;100408.03;5053530;28;20474;-71
2022/08/20 06:39:44;;;;;;;10.73;10.23;;;;;;;42.70;45.72;100406.81;5053215;28;20021;-70
2022/08/20 06:42:09;;;;;;;10.50;10.00;;;;;;;43.34;44.71;100399.66;5053608;28;20539;-70
2022/08/20 06:44:35;;;;;;;10.60;10.10;;;;;;;42.38;46.31;100403.13;5052545;28;20489;-70
2022/08/20 06:47:05;;;;;;;10.60;10.10;;;;;;;42.49;46.01;100401.16;5052341;28;20036;-71
2022/08/20 06:49:33;;;;;;;10.73;10.23;;;;;;;41.27;50.12;100404.44;5051912;28;20028;-69
2022/08/20 06:51:58;;;;;;;10.65;10.15;;;;;;;41.39;50.63;100404.19;5060552;28;20508;-71
2022/08/20 06:54:24;;;;;;;10.55;10.05;;;;;;;41.46;49.94;100406.22;5051430;28;20029;-71
2022/08/20 06:56:53;;;;;;;10.48;9.98;;;;;;;41.59;51.50;100408.28;5050405;28;20059;-71
2022/08/20 06:59:19;;;;;;;10.65;10.15;;;;;;;42.24;47.26;100398.31;5054924;28;20033;-71
2022/08/20 07:01:45;;;;;;;11.05;10.55;;;;;;;42.66;46.99;100406.00;5053811;28;20116;-71
2022/08/20 07:04:11;;;;;;;10.88;10.38;;;;;;;43.51;44.12;100416.44;5050349;28;20108;-70
2022/08/20 07:06:36;;;;;;;10.90;10.40;;;;;;;42.58;45.11;100409.97;5049307;28;20441;-71
2022/08/20 07:09:02;;;;;;;10.80;10.30;;;;;;;44.13;41.43;100406.66;5051135;28;20508;-71
2022/08/20 07:11:27;;;;;;;10.55;10.05;;;;;;;43.32;42.49;100402.84;5052313;28;20021;-70
2022/08/20 07:13:55;;;;;;;10.40;9.95;;;;;;;42.29;46.72;100403.50;5051216;28;20036;-70
2022/08/20 07:16:20;;;;;;;10.85;10.35;;;;;;;41.36;48.60;100397.41;5050516;28;20435;-71
2022/08/20 07:18:46;;;;;;;10.82;10.32;;;;;;;41.78;49.63;100392.50;5056494;28;20040;-70
2022/08/20 07:21:11;;;;;;;10.98;10.48;;;;;;;42.35;48.04;100396.34;5049192;28;20033;-70
2022/08/20 07:23:37;;;;;;;10.70;10.20;;;;;;;41.32;49.78;100388.22;5052149;28;20101;-70
2022/08/20 07:26:02;;;;;;;10.60;10.10;;;;;;;38.04;77.11;100393.66;5039036;28;20029;-70
2022/08/20 07:28:30;;;;;;;10.57;10.07;;;;;;;35.68;81.28;100387.38;5051720;28;20037;-69
2022/08/20 07:33:42;;;;;;;10.85;10.35;;;;;;;37.50;77.65;100400.75;5054194;28;20408;-71
2022/08/20 07:36:08;;;;;;;10.52;10.02;;;;;;;36.57;78.51;100391.19;5052929;28;20453;-72
2022/08/20 07:38:34;;;;;;;10.15;9.75;;;;;;;34.78;87.46;100388.34;5052258;28;20043;-73
2022/08/20 07:41:13;;;;;;;10.07;9.68;;;;;;;30.72;100.00;100378.91;5054082;28;20029;-71
2022/08/20 07:43:40;;;;;;;10.45;9.95;;;;;;;34.47;98.22;100385.25;5050142;28;20063;-72
2022/08/20 07:46:07;;;;;;;10.52;10.02;;;;;;;37.96;81.41;100386.34;5046603;28;20082;-71
2022/08/20 07:48:40;;;;;;;10.00;9.60;;;;;;;38.98;73.72;100389.56;5050878;28;20027;-71
2022/08/20 07:51:09;;;;;;;10.35;9.90;;;;;;;38.27;77.60;100394.59;5049595;28;20112;-71
2022/08/20 07:53:37;;;;;;;10.52;10.02;;;;;;;39.81;67.29;100394.47;5049806;28;20116;-72
2022/08/20 07:56:05;;;;;;;10.57;10.07;;;;;;;36.80;81.61;100383.94;5050464;28;20052;-72
2022/08/20 07:58:34;;;;;;;10.40;9.95;;;;;;;36.76;84.96;100386.59;5051615;28;20032;-72
2022/08/20 08:00:59;;;;;;;10.70;10.20;;;;;;;41.04;63.89;100390.75;5055326;28;20051;-72
2022/08/20 08:03:26;;;;;;;10.73;10.23;;;;;;;35.40;84.80;100384.56;5049760;28;20032;-72
2022/08/20 08:05:52;;;;;;;10.65;10.15;;;;;;;36.17;82.09;100389.28;5047991;28;20029;-71
2022/08/20 08:08:22;;;;;;;10.48;10.00;;;;;;;36.76;77.32;100371.97;5050336;28;20100;-71
2022/08/20 08:10:52;;;;;;;10.75;10.25;;;;;;;38.80;71.97;100371.84;5053689;28;20111;-71
2022/08/20 08:13:17;;;;;;;10.98;10.48;;;;;;;39.99;65.76;100376.84;5051235;28;20049;-71
2022/08/20 08:15:46;;;;;;;10.52;10.02;;;;;;;36.32;81.15;100380.22;5061462;28;20060;-72
2022/08/20 08:18:23;;;;;;;10.68;10.18;;;;;;;37.75;75.44;100370.03;5042659;28;20021;-72
2022/08/20 08:20:52;;;;;;;10.68;10.18;;;;;;;37.51;77.44;100360.03;5058144;28;20035;-72
2022/08/20 08:23:19;;;;;;;11.20;10.70;;;;;;;36.77;80.53;100354.22;5064945;28;20595;-72
2022/08/20 08:25:46;;;;;;;10.57;10.07;;;;;;;34.93;88.24;100356.56;5050005;28;20029;-72
2022/08/20 08:28:15;;;;;;;11.05;10.55;;;;;;;32.46;98.28;100356.31;5051664;28;20032;-72
2022/08/20 08:30:41;;;;;;;11.07;10.57;;;;;;;34.87;92.93;100353.19;5046613;28;20056;-73
2022/08/20 08:33:33;;;;;;;10.73;10.23;;;;;;;35.29;89.14;100358.56;5056504;28;20040;-71
2022/08/20 08:36:02;;;;;;;10.93;10.43;;;;;;;30.99;100.00;100354.06;5047409;28;20029;-72
2022/08/20 08:38:34;;;;;;;10.98;10.48;;;;;;;31.07;100.00;100357.97;5052487;28;20028;-73
2022/08/20 08:41:12;;;;;;;10.85;10.35;;;;;;;35.34;89.11;100355.56;5049916;28;20033;-71
2022/08/20 08:43:38;;;;;;;11.15;10.65;;;;;;;31.57;100.00;100349.44;5053018;28;20028;-71
2022/08/20 08:46:08;;;;;;;11.23;10.73;;;;;;;30.24;100.00;100352.94;5047347;28;20412;-71
2022/08/20 08:48:37;;;;;;;10.95;10.45;;;;;;;30.90;100.00;100345.00;5049356;28;20071;-70
2022/08/20 08:51:11;;;;;;;11.23;10.73;;;;;;;32.16;100.00;100353.41;5050508;28;20352;-69
2022/08/20 08:53:45;;;;;;;;;;;;;;;35.28;89.26;100356.13;5070246;28;20480;-70
2022/08/20 08:56:13;;;;;;;11.30;10.80;;;;;;;32.13;100.00;100356.00;5045995;28;19913;-73
2022/08/20 08:58:39;;;;;;;11.18;10.68;;;;;;;33.84;98.29;100354.94;5045590;28;20581;-69
2022/08/20 09:01:20;;;;;;;10.90;10.40;;;;;;;32.90;100.00;100348.78;5053807;28;20132;-70
2022/08/20 09:03:50;;;;;;;11.18;10.68;;;;;;;33.24;98.50;100348.66;5047270;28;20693;-68
2022/08/20 09:06:19;;;;;;;11.05;10.55;;;;;;;35.26;91.29;100350.97;5052116;28;20028;-68
2022/08/20 09:08:57;;;;;;;10.55;10.05;;;;;;;35.39;88.20;100344.28;5058225;28;20480;-69
2022/08/20 09:11:24;;;;;;;10.80;10.30;;;;;;;31.59;100.00;100350.75;5056768;28;20495;-69
2022/08/20 09:13:53;;;;;;;11.27;10.77;;;;;;;34.32;97.12;100337.88;5049689;28;20021;-69
2022/08/20 09:16:19;;;;;;;10.98;10.48;;;;;;;36.72;82.45;100326.84;5049407;28;20036;-68
2022/08/20 09:18:44;;;;;;;10.82;10.32;;;;;;;34.92;88.56;100337.63;5048440;28;20033;-68
2022/08/20 09:21:10;;;;;;;10.98;10.48;;;;;;;32.80;97.80;100327.16;5048991;28;20047;-69
2022/08/20 09:23:36;;;;;;;10.77;10.27;;;;;;;36.14;84.92;100340.28;5038536;28;20021;-69
2022/08/20 09:26:02;;;;;;;10.85;10.35;;;;;;;36.58;82.70;100334.75;5050004;28;20696;-70
2022/08/20 09:28:27;;;;;;;11.00;10.50;;;;;;;36.47;78.91;100337.25;5049550;28;20035;-68
2022/08/20 09:30:53;;;;;;;11.48;10.98;;;;;;;33.20;91.56;100336.72;5050979;28;20179;-68
2022/08/20 09:33:18;;;;;;;10.73;10.23;;;;;;;32.36;100.00;100331.94;5048109;28;20036;-70
2022/08/20 09:35:45;;;;;;;10.50;10.00;;;;;;;32.75;100.00;100330.06;5049843;28;20560;-68
2022/08/20 09:38:11;;;;;;;10.85;10.35;;;;;;;34.70;88.56;100328.59;5045917;28;20028;-68
2022/08/20 09:40:37;;;;;;;11.20;10.70;;;;;;;32.22;100.00;100325.78;5052330;28;20032;-68
2022/08/20 09:43:07;;;;;;;11.13;10.63;;;;;;;33.64;91.15;100328.22;5049217;28;20033;-68
2022/08/20 09:45:32;;;;;;;10.57;10.07;;;;;;;34.53;85.70;100324.09;5055800;28;20052;-69
2022/08/20 09:47:58;;;;;;;11.00;10.50;;;;;;;32.79;88.91;100328.28;5051279;28;20021;-68
2022/08/20 09:50:28;;;;;;;10.60;10.10;;;;;;;32.12;99.25;100316.75;5048954;28;20039;-68
2022/08/20 09:52:56;;;;;;;10.52;10.02;;;;;;;35.12;84.90;100309.16;5067719;28;20033;-68
2022/08/20 09:55:37;;;;;;;10.30;9.90;;;;;;;32.15;93.67;100298.84;5054285;28;20028;-68
2022/08/20 09:58:17;;;;;;;10.57;10.07;;;;;;;31.42;100.00;100309.56;5069066;28;20563;-69
2022/08/20 10:00:42;;;;;;;10.60;10.10;;;;;;;31.60;96.05;100311.25;5053516;28;20032;-67
2022/08/20 10:03:08;;;;;;;10.88;10.38;;;;;;;32.10;95.46;100301.75;5052860;28;20047;-67
2022/08/20 10:05:34;;;;;;;10.88;10.38;;;;;;;31.22;100.00;100302.78;5048389;28;20107;-68
2022/08/20 10:07:59;;;;;;;11.02;10.52;;;;;;;31.42;100.00;100297.81;5054558;28;20438;-68
2022/08/20 10:10:25;;;;;;;10.63;10.13;;;;;;;30.86;100.00;100307.63;5067653;28;20036;-68
2022/08/20 10:12:50;;;;;;;11.52;11.02;;;;;;;32.10;98.87;100299.81;5055433;28;20492;-67
2022/08/20 10:15:16;;;;;;;11.40;10.90;;;;;;;31.05;100.00;100300.75;5046915;28;20033;-70
2022/08/20 10:17:42;;;;;;;11.13;10.63;;;;;;;32.05;99.14;100290.94;5051558;28;20046;-69
2022/08/20 10:20:10;;;;;;;10.55;10.05;;;;;;;32.67;98.29;100290.50;5055312;28;20499;-68
2022/08/20 10:22:36;;;;;;;10.70;10.20;;;;;;;32.73;93.89;100294.69;5054076;28;20037;-70
2022/08/20 10:25:03;;;;;;;10.50;10.00;;;;;;;32.88;92.38;100290.63;5057750;28;20086;-69
2022/08/20 10:27:28;;;;;;;10.43;9.93;;;;;;;31.03;100.00;100291.22;5051969;28;20128;-71
2022/08/20 10:29:54;;;;;;;11.10;10.60;;;;;;;32.14;94.27;100284.31;5057615;28;20571;-70
2022/08/20 10:32:19;;;;;;;10.60;10.10;;;;;;;32.21;95.70;100269.28;5061230;28;20028;-69
2022/08/20 10:34:45;;;;;;;10.77;10.27;;;;;;;32.48;94.30;100271.69;5056675;28;20112;-67
2022/08/20 10:37:16;;;;;;;10.75;10.25;;;;;;;33.38;92.16;100279.69;5056798;28;20111;-70
2022/08/20 10:39:42;;;;;;;10.65;10.15;;;;;;;32.37;91.19;100267.66;5065037;28;20056;-70
2022/08/20 10:42:08;;;;;;;11.20;10.70;;;;;;;33.57;88.78;100275.69;5051643;28;20483;-70
2022/08/20 10:44:33;;;;;;;10.70;10.20;;;;;;;32.52;86.96;100278.13;5051516;28;20728;-70
2022/08/20 10:47:14;;;;;;;10.80;10.30;;;;;;;32.61;89.29;100275.34;5067621;28;20033;-74
2022/08/20 10:49:40;;;;;;;10.73;10.23;;;;;;;33.37;89.08;100266.25;5049420;28;20032;-70
2022/08/20 10:52:06;;;;;;;10.57;10.07;;;;;;;31.26;94.91;100265.38;5051963;28;20447;-72
2022/08/20 10:54:32;;;;;;;10.57;10.07;;;;;;;32.76;93.12;100266.56;5053097;28;20415;-68
2022/08/20 10:57:03;;;;;;;10.20;9.80;;;;;;;32.27;93.10;100268.00;5052093;28;20029;-70
2022/08/20 10:59:30;;;;;;;10.77;10.27;;;;;;;32.62;91.53;100260.50;5040683;28;20109;-71
2022/08/20 11:01:55;;;;;;;10.93;10.43;;;;;;;32.58;92.46;100265.81;5046689;28;20483;-73
2022/08/20 11:04:20;;;;;;;11.27;10.77;;;;;;;30.01;100.00;100261.00;5050431;28;20043;-70
2022/08/20 11:06:46;;;;;;;11.30;10.80;;;;;;;30.48;97.85;100253.25;5066466;28;20488;-71
2022/08/20 11:09:11;;;;;;;10.35;9.88;;;;;;;30.91;98.06;100258.94;5051620;28;20037;-71
2022/08/20 11:11:37;;;;;;;10.52;10.02;;;;;;;32.56;90.63;100243.38;5049748;28;20577;-70
2022/08/20 11:14:02;;;;;;;12.68;12.07;;;;;;;30.08;98.47;100250.44;5034556;28;20036;-70
2022/08/20 11:16:28;;;;;;;11.32;10.82;;;;;;;30.32;99.04;100236.44;5050367;28;20074;-70
2022/08/20 11:18:54;;;;;;;11.52;11.02;;;;;;;32.28;93.19;100231.97;5049017;28;20027;-67